DAL1381 KATL-KCHS
Flight info
| Callsign | DAL1381 |
|---|---|
| Flight time | N/A |
| Altitude | 23000 |
| Route | GAIRY2 IRQ OSPRI7 |
| Aircraft | B739/M-SDE2E3FGHIRWXY/LB1 |
Departure
| Time | N/A |
|---|---|
| Airport | Hartsfield Jackson Atlanta International Airport (KATL) |
Arrival
| Time | 2026-04-24 19:14 |
|---|---|
| Airport | Charleston International Airport (KCHS) |
| Time | Latitude | Longitude | Altitude | Speed | Heading |
|---|---|---|---|---|---|
| 2026-04-24 18:54 | 33.53016 | -81.59908 | 22937 ft | 446 kts | 109° |
| 2026-04-24 18:55 | 33.50816 | -81.52979 | 22929 ft | 446 kts | 109° |
| 2026-04-24 18:55 | 33.49721 | -81.49537 | 22925 ft | 446 kts | 109° |
| 2026-04-24 18:55 | 33.48618 | -81.46075 | 22921 ft | 445 kts | 109° |
| 2026-04-24 18:56 | 33.47514 | -81.42612 | 22917 ft | 445 kts | 109° |
| 2026-04-24 18:56 | 33.46412 | -81.39159 | 22919 ft | 445 kts | 109° |
| 2026-04-24 18:56 | 33.45307 | -81.35702 | 22920 ft | 445 kts | 109° |
| 2026-04-24 18:56 | 33.44211 | -81.32269 | 22917 ft | 445 kts | 110° |
| 2026-04-24 18:57 | 33.43099 | -81.28796 | 22917 ft | 445 kts | 110° |
| 2026-04-24 18:57 | 33.41996 | -81.25356 | 22918 ft | 445 kts | 110° |
| 2026-04-24 18:57 | 33.40892 | -81.21915 | 22915 ft | 445 kts | 110° |
| 2026-04-24 18:57 | 33.39779 | -81.18454 | 22913 ft | 445 kts | 110° |
| 2026-04-24 18:58 | 33.38666 | -81.14995 | 22911 ft | 445 kts | 110° |
| 2026-04-24 18:58 | 33.37570 | -81.11589 | 22914 ft | 445 kts | 110° |
| 2026-04-24 18:58 | 33.36461 | -81.08147 | 22914 ft | 445 kts | 110° |
| 2026-04-24 18:58 | 33.35344 | -81.04687 | 22919 ft | 445 kts | 110° |
| 2026-04-24 18:59 | 33.34233 | -81.01248 | 22920 ft | 444 kts | 110° |
| 2026-04-24 18:59 | 33.33122 | -80.97816 | 22919 ft | 445 kts | 110° |
| 2026-04-24 18:59 | 33.32007 | -80.94373 | 22919 ft | 444 kts | 110° |
| 2026-04-24 18:59 | 33.30887 | -80.90921 | 22920 ft | 444 kts | 110° |
| 2026-04-24 19:00 | 33.29777 | -80.87502 | 22920 ft | 444 kts | 110° |
| 2026-04-24 19:00 | 33.28660 | -80.84063 | 22913 ft | 445 kts | 110° |
| 2026-04-24 19:00 | 33.27542 | -80.80610 | 22649 ft | 441 kts | 110° |
| 2026-04-24 19:00 | 33.26464 | -80.77285 | 22036 ft | 432 kts | 110° |
| 2026-04-24 19:01 | 33.25378 | -80.73950 | 21296 ft | 425 kts | 110° |
| 2026-04-24 19:01 | 33.24326 | -80.70696 | 20564 ft | 419 kts | 110° |
| 2026-04-24 19:01 | 33.23301 | -80.67500 | 19843 ft | 413 kts | 110° |
| 2026-04-24 19:01 | 33.22273 | -80.64332 | 19123 ft | 408 kts | 111° |
| 2026-04-24 19:02 | 33.21586 | -80.62260 | 18642 ft | 404 kts | 111° |
| 2026-04-24 19:02 | 33.20194 | -80.58130 | 17679 ft | 397 kts | 112° |
| 2026-04-24 19:02 | 33.19176 | -80.55140 | 16992 ft | 392 kts | 112° |
| 2026-04-24 19:02 | 33.18146 | -80.52123 | 16284 ft | 387 kts | 112° |
| 2026-04-24 19:03 | 33.17149 | -80.49199 | 15589 ft | 383 kts | 112° |
| 2026-04-24 19:03 | 33.16155 | -80.46277 | 14886 ft | 379 kts | 112° |
| 2026-04-24 19:03 | 33.15178 | -80.43403 | 14184 ft | 375 kts | 112° |
| 2026-04-24 19:03 | 33.14268 | -80.40489 | 13468 ft | 370 kts | 107° |
| 2026-04-24 19:04 | 33.13679 | -80.37550 | 12763 ft | 367 kts | 98° |
| 2026-04-24 19:04 | 33.13455 | -80.34546 | 12048 ft | 363 kts | 92° |
| 2026-04-24 19:04 | 33.13408 | -80.31591 | 11344 ft | 359 kts | 90° |
| 2026-04-24 19:04 | 33.13422 | -80.28616 | 10627 ft | 356 kts | 90° |
| 2026-04-24 19:05 | 33.13424 | -80.25710 | 9919 ft | 352 kts | 92° |
| 2026-04-24 19:05 | 33.13131 | -80.22849 | 9202 ft | 348 kts | 107° |
| 2026-04-24 19:05 | 33.12008 | -80.20357 | 8486 ft | 342 kts | 133° |
| 2026-04-24 19:05 | 33.10221 | -80.18553 | 7779 ft | 338 kts | 148° |
| 2026-04-24 19:06 | 33.08182 | -80.17200 | 7054 ft | 335 kts | 153° |
| 2026-04-24 19:06 | 33.06124 | -80.15901 | 6328 ft | 333 kts | 153° |
| 2026-04-24 19:06 | 33.04111 | -80.14581 | 5613 ft | 331 kts | 151° |
| 2026-04-24 19:06 | 33.02145 | -80.13187 | 4899 ft | 329 kts | 149° |
| 2026-04-24 19:07 | 33.00226 | -80.11731 | 4187 ft | 326 kts | 147° |
| 2026-04-24 19:07 | 32.98479 | -80.10041 | 3472 ft | 324 kts | 133° |
| 2026-04-24 19:07 | 32.97581 | -80.08636 | 2998 ft | 323 kts | 121° |
| 2026-04-24 19:07 | 32.96619 | -80.05332 | 2186 ft | 317 kts | 97° |
| 2026-04-24 19:08 | 32.96750 | -80.02792 | 1981 ft | 299 kts | 77° |
| 2026-04-24 19:08 | 32.97549 | -80.00617 | 1959 ft | 278 kts | 57° |
| 2026-04-24 19:08 | 32.98747 | -79.98904 | 1959 ft | 257 kts | 48° |
| 2026-04-24 19:08 | 32.99937 | -79.97445 | 1963 ft | 238 kts | 46° |
| 2026-04-24 19:09 | 33.01012 | -79.96053 | 2082 ft | 214 kts | 58° |
| 2026-04-24 19:09 | 33.01800 | -79.94668 | 2246 ft | 198 kts | 48° |
| 2026-04-24 19:09 | 33.02923 | -79.93735 | 1940 ft | 200 kts | 22° |
| 2026-04-24 19:09 | 33.04279 | -79.93607 | 1912 ft | 192 kts | 346° |
| 2026-04-24 19:10 | 33.05352 | -79.94366 | 1923 ft | 175 kts | 307° |
| 2026-04-24 19:10 | 33.05793 | -79.95673 | 1888 ft | 166 kts | 269° |
| 2026-04-24 19:10 | 33.05528 | -79.96942 | 2096 ft | 155 kts | 234° |
| 2026-04-24 19:10 | 33.04684 | -79.97707 | 2159 ft | 154 kts | 195° |
| 2026-04-24 19:11 | 33.03599 | -79.97782 | 2099 ft | 160 kts | 178° |
| 2026-04-24 19:11 | 33.02487 | -79.97723 | 1999 ft | 159 kts | 178° |
| 2026-04-24 19:11 | 33.01394 | -79.97705 | 1959 ft | 155 kts | 186° |
| 2026-04-24 19:11 | 33.00355 | -79.98028 | 1920 ft | 155 kts | 204° |
| 2026-04-24 19:12 | 32.99346 | -79.98642 | 1782 ft | 167 kts | 207° |
| 2026-04-24 19:12 | 32.98318 | -79.99275 | 1650 ft | 164 kts | 205° |
| 2026-04-24 19:12 | 32.97281 | -79.99847 | 1448 ft | 166 kts | 203° |
| 2026-04-24 19:12 | 32.96220 | -80.00399 | 1252 ft | 165 kts | 202° |
| 2026-04-24 19:13 | 32.95528 | -80.00749 | 1124 ft | 162 kts | 202° |
| 2026-04-24 19:13 | 32.94162 | -80.01485 | 869 ft | 159 kts | 205° |
| 2026-04-24 19:13 | 32.93167 | -80.02050 | 701 ft | 158 kts | 205° |
| 2026-04-24 19:13 | 32.92171 | -80.02586 | 534 ft | 150 kts | 203° |
| 2026-04-24 19:14 | 32.91256 | -80.03066 | 310 ft | 141 kts | 204° |
| 2026-04-24 19:14 | 32.90366 | -80.03543 | 119 ft | 136 kts | 204° |
| 2026-04-24 19:14 | 32.89586 | -80.03964 | 55 ft | 98 kts | 204° |
| 2026-04-24 19:14 | 32.89177 | -80.04183 | 47 ft | 44 kts | 204° |
| 2026-04-24 19:15 | 32.88901 | -80.04333 | 42 ft | 42 kts | 205° |
| 2026-04-24 19:15 | 32.88656 | -80.04467 | 37 ft | 30 kts | 205° |
| 2026-04-24 19:15 | 32.88524 | -80.04508 | 34 ft | 16 kts | 161° |
| 2026-04-24 19:15 | 32.88489 | -80.04397 | 34 ft | 15 kts | 69° |
| 2026-04-24 19:16 | 32.88614 | -80.04200 | 36 ft | 15 kts | 52° |
| 2026-04-24 19:16 | 32.88674 | -80.04108 | 37 ft | 13 kts | 52° |
| 2026-04-24 19:16 | 32.88659 | -80.04028 | 37 ft | 10 kts | 141° |
| 2026-04-24 19:17 | 32.88628 | -80.03960 | 37 ft | 9 kts | 78° |
| 2026-04-24 19:17 | 32.88666 | -80.03905 | 37 ft | 8 kts | 43° |
| 2026-04-24 19:17 | 32.88698 | -80.03869 | 38 ft | 4 kts | 44° |
| 2026-04-24 19:17 | 32.88714 | -80.03848 | 38 ft | 5 kts | 52° |
| 2026-04-24 19:18 | 32.88742 | -80.03783 | 38 ft | 8 kts | 71° |
| 2026-04-24 19:18 | 32.88753 | -80.03723 | 39 ft | 9 kts | 90° |
| 2026-04-24 19:18 | 32.88707 | -80.03645 | 38 ft | 13 kts | 144° |
| 2026-04-24 19:18 | 32.88653 | -80.03568 | 37 ft | 10 kts | 117° |
| 2026-04-24 19:19 | 32.88620 | -80.03505 | 37 ft | 7 kts | 133° |
| 2026-04-24 19:19 | 32.88585 | -80.03482 | 37 ft | 4 kts | 171° |
| 2026-04-24 19:19 | 32.88562 | -80.03492 | 37 ft | 2 kts | 234° |
| 2026-04-24 19:19 | 32.88552 | -80.03525 | 37 ft | 3 kts | 257° |